Cana, Virginia
Current Conditions -  °F | °C
As of 10:35 PM on Monday 26 Jan 2015 (Local Time) from KMWK Reporting Station
Broken Clouds Broken Clouds  
Wind Chill: 27°   Ceiling: 7500
Heat Index: 35°   Visibility: 10mi
Dew Point: 25°   Wind: 10mph
Humidity: 66%   Direction: 320°NW
Pressure: 29.76"   Gusts: 17mph
Location:  36.59°N, 80.67°W
Report Text: KMWK 270335Z AUTO 32009G15KT 10SM BKN075 02/M04 A2976 RMK AO2 T00171040
Loading
Personal Weather Stations






























Interactive Weather Map New forecast layout! Learn more

10-Day Weather Forecast

Advertisements
Track Severe Weather on mobile